Time;durP1;ratioP1;P1;durP2;ratioP2;P2;SDS_P1;SDS_P2;PMS_P1;PMS_P2;Temp;Humidity;BMP_temperature;BMP_pressure;BME280_temperature;BME280_humidity;BME280_pressure;Samples;Min_cycle;Max_cycle;Signal;HPM_P1;HPM_P2
2023/05/17 00:00:47;;;;;;;16.50;3.20;;;10.00;79.40;;;;;;4990434;28;20051;-75
2023/05/17 00:03:14;;;;;;;15.10;2.88;;;10.00;79.70;;;;;;4972006;28;20357;-74
2023/05/17 00:05:41;;;;;;;13.40;2.88;;;10.00;79.80;;;;;;4972530;28;20051;-74
2023/05/17 00:08:08;;;;;;;7.35;1.15;;;10.00;79.40;;;;;;4989791;28;20079;-74
2023/05/17 00:10:36;;;;;;;14.00;2.70;;;10.00;79.40;;;;;;4972529;28;20051;-74
2023/05/17 00:13:03;;;;;;;12.57;2.20;;;10.00;79.30;;;;;;4988400;28;20688;-74
2023/05/17 00:15:30;;;;;;;10.75;2.20;;;10.00;79.00;;;;;;4971859;28;20563;-74
2023/05/17 00:17:57;;;;;;;13.93;2.40;;;10.10;78.50;;;;;;4990297;28;20445;-74
2023/05/17 00:20:24;;;;;;;8.63;1.35;;;10.10;78.00;;;;;;4990256;28;20053;-74
2023/05/17 00:22:51;;;;;;;13.38;2.58;;;10.10;77.20;;;;;;4971979;28;20055;-74
2023/05/17 00:25:18;;;;;;;13.03;2.63;;;10.10;76.90;;;;;;4972182;28;20055;-74
2023/05/17 00:27:46;;;;;;;12.25;1.52;;;10.20;76.50;;;;;;4989646;28;20274;-74
2023/05/17 00:30:14;;;;;;;9.70;1.50;;;10.20;75.90;;;;;;4956221;28;20047;-74
2023/05/17 00:32:40;;;;;;;12.18;1.73;;;10.20;75.50;;;;;;4970429;28;20094;-74
2023/05/17 00:35:08;;;;;;;10.20;1.70;;;10.20;74.70;;;;;;4956381;28;20082;-74
2023/05/17 00:37:35;;;;;;;8.43;1.50;;;10.20;74.60;;;;;;4953019;28;20106;-74
2023/05/17 00:40:02;;;;;;;9.93;2.00;;;10.10;73.90;;;;;;4958231;28;20788;-74
2023/05/17 00:42:29;;;;;;;11.85;2.28;;;10.10;74.10;;;;;;4955913;28;20576;-74
2023/05/17 00:44:57;;;;;;;9.60;1.80;;;10.10;74.00;;;;;;4971863;28;20058;-74
2023/05/17 00:47:24;;;;;;;13.45;2.10;;;10.00;73.80;;;;;;4971749;28;20196;-74
2023/05/17 00:49:51;;;;;;;10.87;1.97;;;10.00;73.80;;;;;;4988753;28;20061;-74
2023/05/17 00:52:18;;;;;;;12.77;2.10;;;10.00;73.60;;;;;;4969112;28;20271;-74
2023/05/17 00:54:46;;;;;;;13.20;2.20;;;10.00;73.40;;;;;;4971647;28;20130;-74
2023/05/17 00:57:13;;;;;;;14.85;2.35;;;10.00;73.40;;;;;;4977926;28;20051;-74
2023/05/17 00:59:40;;;;;;;9.75;1.70;;;10.00;73.40;;;;;;4955235;28;20075;-74
2023/05/17 01:02:09;;;;;;;12.10;2.00;;;9.90;73.20;;;;;;4971509;28;20059;-74
2023/05/17 01:04:37;;;;;;;12.82;1.90;;;9.90;73.30;;;;;;4959811;28;20254;-74
2023/05/17 01:07:04;;;;;;;14.60;2.05;;;9.80;73.20;;;;;;4969181;28;20511;-74
2023/05/17 01:09:31;;;;;;;10.77;2.08;;;9.80;73.20;;;;;;4972155;28;20430;-74
2023/05/17 01:12:07;;;;;;;12.07;2.00;;;9.80;73.20;;;;;;4988792;28;20509;-74
2023/05/17 01:14:47;;;;;;;10.60;2.47;;;9.70;73.20;;;;;;4971803;28;20071;-75
2023/05/17 01:17:20;;;;;;;11.07;1.98;;;9.70;73.20;;;;;;4971489;28;20267;-74
2023/05/17 01:19:58;;;;;;;10.60;2.13;;;9.70;73.30;;;;;;4972073;28;20501;-74
2023/05/17 01:22:39;;;;;;;9.57;1.83;;;9.60;73.20;;;;;;4968209;28;20059;-74
2023/05/17 01:25:19;;;;;;;11.80;2.00;;;9.60;73.30;;;;;;4949215;28;20219;-74
2023/05/17 01:27:50;;;;;;;10.43;2.00;;;9.60;73.20;;;;;;4971581;28;20157;-75
2023/05/17 01:30:19;;;;;;;13.25;2.03;;;9.50;73.30;;;;;;4955055;28;20275;-74
2023/05/17 01:32:46;;;;;;;10.30;1.60;;;9.50;73.30;;;;;;4969651;28;20156;-74
2023/05/17 01:35:15;;;;;;;7.35;1.42;;;9.50;73.30;;;;;;4955612;28;20059;-74
2023/05/17 01:37:42;;;;;;;13.63;2.45;;;9.40;73.20;;;;;;4969892;28;20137;-74
2023/05/17 01:40:10;;;;;;;11.23;2.17;;;9.30;73.30;;;;;;4987692;28;20540;-74
2023/05/17 01:42:41;;;;;;;13.20;2.00;;;9.30;73.40;;;;;;4955070;28;20723;-74
2023/05/17 01:45:16;;;;;;;11.93;1.92;;;9.20;73.50;;;;;;4971225;28;20165;-75
2023/05/17 01:47:51;;;;;;;11.98;1.58;;;9.20;73.60;;;;;;4989296;28;20055;-74
2023/05/17 01:50:22;;;;;;;13.65;2.17;;;9.20;73.70;;;;;;4957837;28;20903;-74
2023/05/17 01:52:54;;;;;;;12.83;2.20;;;9.10;73.70;;;;;;4971238;28;20058;-74
2023/05/17 01:55:30;;;;;;;11.75;2.10;;;9.10;73.80;;;;;;4955306;28;20250;-74
2023/05/17 01:57:58;;;;;;;13.40;1.58;;;9.00;73.90;;;;;;4953695;28;20047;-74
2023/05/17 02:00:29;;;;;;;11.20;2.45;;;9.00;73.80;;;;;;4970829;28;20042;-74
2023/05/17 02:02:57;;;;;;;11.13;1.83;;;9.00;74.30;;;;;;4954841;28;20051;-74
2023/05/17 02:05:24;;;;;;;11.90;1.80;;;8.90;74.10;;;;;;4955192;28;20490;-74
2023/05/17 02:07:55;;;;;;;11.07;1.92;;;8.90;74.20;;;;;;4954835;28;20939;-74
2023/05/17 02:10:23;;;;;;;13.23;1.98;;;8.80;74.40;;;;;;4970929;28;20062;-74
2023/05/17 02:12:50;;;;;;;12.73;2.35;;;8.80;74.40;;;;;;4987233;28;20149;-74
2023/05/17 02:15:17;;;;;;;13.63;1.92;;;8.70;74.60;;;;;;4970506;28;20436;-74
2023/05/17 02:17:45;;;;;;;11.57;1.60;;;8.60;74.80;;;;;;4971358;28;20409;-74
2023/05/17 02:20:14;;;;;;;10.98;2.25;;;8.60;75.20;;;;;;4958107;28;20265;-75
2023/05/17 02:22:41;;;;;;;6.82;1.02;;;8.60;75.40;;;;;;4974278;28;20053;-74
2023/05/17 02:25:08;;;;;;;11.63;2.03;;;8.60;75.30;;;;;;4974210;28;20134;-74
2023/05/17 02:27:36;;;;;;;10.40;2.03;;;8.60;75.80;;;;;;4975021;28;20088;-74
2023/05/17 02:30:03;;;;;;;9.70;1.80;;;8.60;75.90;;;;;;4974235;28;20051;-75
2023/05/17 02:32:30;;;;;;;14.23;1.80;;;8.60;76.10;;;;;;4956371;28;20277;-74
2023/05/17 02:34:59;;;;;;;11.52;1.80;;;8.50;75.90;;;;;;4973966;28;20157;-74
2023/05/17 02:37:26;;;;;;;10.77;1.60;;;8.60;75.80;;;;;;4974062;28;20515;-74
2023/05/17 02:39:53;;;;;;;11.75;1.75;;;8.60;76.00;;;;;;4972778;28;20960;-75
2023/05/17 02:42:19;;;;;;;10.50;1.80;;;8.60;76.50;;;;;;4956204;28;20051;-74
2023/05/17 02:44:51;;;;;;;10.65;1.17;;;8.50;76.20;;;;;;4972817;28;20830;-74
2023/05/17 02:47:19;;;;;;;12.93;1.73;;;8.60;76.30;;;;;;4972785;28;20142;-74
2023/05/17 02:49:46;;;;;;;12.38;2.20;;;8.50;76.30;;;;;;4955483;28;20054;-74
2023/05/17 02:52:15;;;;;;;9.68;1.35;;;8.50;76.00;;;;;;4956211;28;20043;-74
2023/05/17 02:54:43;;;;;;;10.93;1.77;;;8.50;76.20;;;;;;4957611;28;20045;-74
2023/05/17 02:57:10;;;;;;;10.68;1.80;;;8.50;76.40;;;;;;4974152;28;20282;-74
2023/05/17 02:59:38;;;;;;;14.93;1.45;;;8.60;76.00;;;;;;4957188;28;20604;-74
2023/05/17 03:02:05;;;;;;;9.18;1.70;;;8.50;76.10;;;;;;4956993;28;20046;-74
2023/05/17 03:04:33;;;;;;;11.20;1.45;;;8.60;76.00;;;;;;4973511;28;20503;-74
2023/05/17 03:07:00;;;;;;;9.67;1.13;;;8.50;76.00;;;;;;4958610;28;20493;-74
2023/05/17 03:09:29;;;;;;;9.05;1.27;;;8.50;76.00;;;;;;4980241;28;20251;-74
2023/05/17 03:11:57;;;;;;;8.98;1.73;;;8.50;76.30;;;;;;4956890;28;20493;-74
2023/05/17 03:14:28;;;;;;;11.43;1.90;;;8.50;76.20;;;;;;4957207;28;20049;-75
2023/05/17 03:16:55;;;;;;;13.07;1.98;;;8.50;76.20;;;;;;4973316;28;20114;-74
2023/05/17 03:19:22;;;;;;;13.17;1.67;;;8.40;76.10;;;;;;4973135;28;20050;-74
2023/05/17 03:21:50;;;;;;;15.20;2.00;;;8.40;76.20;;;;;;4956575;28;20267;-74
2023/05/17 03:24:18;;;;;;;11.65;1.45;;;8.40;76.40;;;;;;4987811;28;20051;-74
2023/05/17 03:26:46;;;;;;;12.27;1.58;;;8.40;76.30;;;;;;4957390;28;20055;-75
2023/05/17 03:29:14;;;;;;;11.15;1.50;;;8.40;76.40;;;;;;4956497;28;20158;-74
2023/05/17 03:31:43;;;;;;;8.07;1.37;;;8.40;76.20;;;;;;4956177;28;20078;-74
2023/05/17 03:34:10;;;;;;;14.93;2.40;;;8.40;76.50;;;;;;4957199;28;20251;-74
2023/05/17 03:36:39;;;;;;;8.80;1.20;;;8.40;76.40;;;;;;4973300;28;20051;-75
2023/05/17 03:39:06;;;;;;;12.52;1.40;;;8.40;76.40;;;;;;4972151;28;20047;-74
2023/05/17 03:41:34;;;;;;;8.95;0.95;;;8.30;76.60;;;;;;4956316;28;20051;-74
2023/05/17 03:44:02;;;;;;;7.83;1.50;;;8.30;76.50;;;;;;4957175;28;20043;-74
2023/05/17 03:46:30;;;;;;;9.70;1.58;;;8.30;76.50;;;;;;4973069;28;20338;-74
2023/05/17 03:48:57;;;;;;;8.10;1.23;;;8.30;76.50;;;;;;4956572;28;20129;-74
2023/05/17 03:51:25;;;;;;;11.43;1.73;;;8.30;76.80;;;;;;4973184;28;20055;-74
2023/05/17 03:53:58;;;;;;;9.40;1.17;;;8.30;76.50;;;;;;4957042;28;20460;-74
2023/05/17 03:56:26;;;;;;;12.43;1.63;;;8.30;76.40;;;;;;4971489;28;20897;-74
2023/05/17 03:58:53;;;;;;;11.20;1.35;;;8.30;76.30;;;;;;4973046;28;20749;-74
2023/05/17 04:01:22;;;;;;;8.18;1.40;;;8.30;76.30;;;;;;4955939;28;20178;-74
2023/05/17 04:03:49;;;;;;;9.18;1.50;;;8.30;76.20;;;;;;4973092;28;20051;-74
2023/05/17 04:06:16;;;;;;;8.80;1.38;;;8.40;76.20;;;;;;4955831;28;20838;-74
2023/05/17 04:08:43;;;;;;;12.80;1.60;;;8.40;76.00;;;;;;4972433;28;20043;-74
2023/05/17 04:11:12;;;;;;;8.88;1.63;;;8.40;75.80;;;;;;4972344;28;20365;-74
2023/05/17 04:13:40;;;;;;;11.63;1.60;;;8.40;75.80;;;;;;4985065;28;20059;-75
2023/05/17 04:16:08;;;;;;;12.05;1.50;;;8.40;75.60;;;;;;4956581;28;20134;-74
2023/05/17 04:18:38;;;;;;;8.25;1.35;;;8.40;75.70;;;;;;4972192;28;20039;-74
2023/05/17 04:21:06;;;;;;;5.83;1.00;;;8.50;75.60;;;;;;4955645;28;20445;-74
2023/05/17 04:23:34;;;;;;;8.55;1.40;;;8.50;75.40;;;;;;4955928;28;20800;-74
2023/05/17 04:26:03;;;;;;;8.13;1.42;;;8.50;75.40;;;;;;4972046;28;20114;-74
2023/05/17 04:28:33;;;;;;;8.75;1.25;;;8.50;75.30;;;;;;4955860;28;20529;-74
2023/05/17 04:31:01;;;;;;;9.57;1.48;;;8.50;75.10;;;;;;4954429;28;20058;-74
2023/05/17 04:33:28;;;;;;;7.80;1.77;;;8.50;75.10;;;;;;4972319;28;20058;-74
2023/05/17 04:35:56;;;;;;;7.97;1.38;;;8.50;75.10;;;;;;4954074;28;20255;-75
2023/05/17 04:38:25;;;;;;;8.68;1.30;;;8.50;75.20;;;;;;4944512;28;20055;-74
2023/05/17 04:40:52;;;;;;;7.95;1.20;;;8.50;75.00;;;;;;4944165;28;20053;-74
2023/05/17 04:43:19;;;;;;;9.45;1.27;;;8.50;75.00;;;;;;4967954;28;20055;-74
2023/05/17 04:45:47;;;;;;;7.83;1.10;;;8.50;75.00;;;;;;4952512;28;20535;-74
2023/05/17 04:48:15;;;;;;;12.27;1.30;;;8.60;74.80;;;;;;4962867;28;20289;-74
2023/05/17 04:50:45;;;;;;;10.05;1.67;;;8.60;74.70;;;;;;4985225;28;20121;-74
2023/05/17 04:53:14;;;;;;;8.82;1.40;;;8.60;74.80;;;;;;4947118;28;20051;-74
2023/05/17 04:55:41;;;;;;;8.60;1.20;;;8.60;74.60;;;;;;4964724;28;20497;-74
2023/05/17 04:58:09;;;;;;;7.90;1.30;;;8.60;74.30;;;;;;4962743;28;20047;-74
2023/05/17 05:00:36;;;;;;;8.13;1.33;;;8.60;74.30;;;;;;4945228;28;20706;-75
2023/05/17 05:03:06;;;;;;;8.07;1.20;;;8.60;74.10;;;;;;4946904;28;20142;-74
2023/05/17 05:05:34;;;;;;;9.18;1.42;;;8.60;73.70;;;;;;4947314;28;20059;-75
2023/05/17 05:08:02;;;;;;;7.72;1.00;;;8.60;73.70;;;;;;4948271;28;20057;-74
2023/05/17 05:10:32;;;;;;;6.63;1.30;;;8.60;73.70;;;;;;4948666;28;20577;-74
2023/05/17 05:12:59;;;;;;;8.05;1.20;;;8.60;73.50;;;;;;4943983;28;20247;-74
2023/05/17 05:15:26;;;;;;;9.48;1.10;;;8.60;73.40;;;;;;4978908;28;20073;-74
2023/05/17 05:17:58;;;;;;;7.43;1.15;;;8.60;73.30;;;;;;4944472;28;20043;-75
2023/05/17 05:20:25;;;;;;;9.32;1.48;;;8.60;72.70;;;;;;4945469;28;20627;-75
2023/05/17 05:22:52;;;;;;;8.70;1.10;;;8.60;72.80;;;;;;4961050;28;20156;-74
2023/05/17 05:25:20;;;;;;;10.63;1.40;;;8.60;72.60;;;;;;4963715;28;20244;-74
2023/05/17 05:27:49;;;;;;;7.88;1.15;;;8.70;72.50;;;;;;4944128;28;20134;-75
2023/05/17 05:30:21;;;;;;;9.35;1.00;;;8.70;72.50;;;;;;4961174;28;20047;-75
2023/05/17 05:32:50;;;;;;;6.90;1.08;;;8.80;72.30;;;;;;4948803;28;20133;-74
2023/05/17 05:35:18;;;;;;;10.53;1.20;;;8.80;72.30;;;;;;4964300;28;20039;-75
2023/05/17 05:37:45;;;;;;;8.82;1.10;;;8.80;72.30;;;;;;4950052;28;20247;-74
2023/05/17 05:40:14;;;;;;;5.82;0.90;;;8.80;72.10;;;;;;4971720;28;20118;-74
2023/05/17 05:42:42;;;;;;;6.88;0.98;;;8.80;71.80;;;;;;4953014;28;20055;-74
2023/05/17 05:45:12;;;;;;;6.47;0.82;;;8.80;71.90;;;;;;4954873;28;20134;-74
2023/05/17 05:47:40;;;;;;;5.93;0.90;;;8.90;71.90;;;;;;4944791;28;20987;-75
2023/05/17 05:50:09;;;;;;;9.27;1.42;;;8.90;71.60;;;;;;4985568;28;20298;-75
2023/05/17 05:52:37;;;;;;;9.90;1.00;;;8.90;71.60;;;;;;4947705;28;20558;-75
2023/05/17 05:55:05;;;;;;;4.90;0.63;;;8.90;71.60;;;;;;4968049;28;20143;-75
2023/05/17 05:57:32;;;;;;;6.50;1.17;;;8.90;71.50;;;;;;4947382;28;20081;-75
2023/05/17 06:00:00;;;;;;;9.00;1.23;;;9.00;70.70;;;;;;4954161;28;20050;-75
2023/05/17 06:02:28;;;;;;;6.75;0.90;;;9.00;70.90;;;;;;4961148;28;20334;-74
2023/05/17 06:04:55;;;;;;;6.22;0.65;;;9.00;71.00;;;;;;4958921;28;20633;-75
2023/05/17 06:07:22;;;;;;;4.45;0.77;;;9.00;70.90;;;;;;4962656;28;20043;-75
2023/05/17 06:09:49;;;;;;;6.35;0.90;;;9.00;70.30;;;;;;4953081;28;20057;-75
2023/05/17 06:12:16;;;;;;;7.13;1.00;;;9.00;70.60;;;;;;4969759;28;20187;-75
2023/05/17 06:14:43;;;;;;;6.90;0.73;;;9.00;70.30;;;;;;4985170;28;20251;-74
2023/05/17 06:17:10;;;;;;;12.43;1.13;;;9.10;70.40;;;;;;4965202;28;20047;-73
2023/05/17 06:19:38;;;;;;;5.07;0.73;;;9.20;70.10;;;;;;4962021;28;20047;-74
2023/05/17 06:22:05;;;;;;;3.85;0.63;;;9.20;70.10;;;;;;4983333;28;20047;-73
2023/05/17 06:24:32;;;;;;;7.60;0.83;;;9.20;68.50;;;;;;4983558;28;20838;-73
2023/05/17 06:27:00;;;;;;;6.35;0.60;;;9.20;68.70;;;;;;4987659;28;20275;-73
2023/05/17 06:29:27;;;;;;;5.22;0.65;;;9.20;68.50;;;;;;4969839;28;20061;-73
2023/05/17 06:31:55;;;;;;;4.38;0.70;;;9.20;68.70;;;;;;4967676;28;20050;-73
2023/05/17 06:34:22;;;;;;;7.97;0.75;;;9.20;68.90;;;;;;4986691;28;20066;-73
2023/05/17 06:36:51;;;;;;;7.23;0.63;;;9.20;68.60;;;;;;4963311;28;20114;-73
2023/05/17 06:39:18;;;;;;;3.63;0.50;;;9.20;68.50;;;;;;4977078;28;20278;-73
2023/05/17 06:41:45;;;;;;;4.95;0.68;;;9.30;68.50;;;;;;4986397;28;20046;-73
2023/05/17 06:44:17;;;;;;;6.82;0.90;;;9.30;68.00;;;;;;4969318;28;20043;-73
2023/05/17 06:46:44;;;;;;;8.02;0.63;;;9.40;67.80;;;;;;4970693;28;20491;-73
2023/05/17 06:49:11;;;;;;;5.07;0.90;;;9.40;67.70;;;;;;4969735;28;20046;-73
2023/05/17 06:51:38;;;;;;;5.45;0.98;;;9.40;67.30;;;;;;4965353;28;20255;-72
2023/05/17 06:54:06;;;;;;;7.35;1.27;;;9.40;67.50;;;;;;4970067;28;20682;-72
2023/05/17 06:56:33;;;;;;;6.88;0.93;;;9.40;67.20;;;;;;4988247;28;20828;-72
2023/05/17 06:59:01;;;;;;;8.27;1.00;;;9.40;67.50;;;;;;4992227;28;20055;-72
2023/05/17 07:01:28;;;;;;;7.37;1.03;;;9.40;66.60;;;;;;4973183;28;20054;-72
2023/05/17 07:03:55;;;;;;;9.60;0.93;;;9.40;66.80;;;;;;4978546;28;21100;-73
2023/05/17 07:06:22;;;;;;;9.27;1.23;;;9.40;65.90;;;;;;4957672;28;20795;-74
2023/05/17 07:08:49;;;;;;;10.52;1.15;;;9.40;66.50;;;;;;4957364;28;20051;-73
2023/05/17 07:11:18;;;;;;;7.72;1.20;;;9.40;66.10;;;;;;4971475;28;20990;-74
2023/05/17 07:13:44;;;;;;;9.13;1.17;;;9.40;65.70;;;;;;4962737;28;20059;-74
2023/05/17 07:16:12;;;;;;;5.78;0.93;;;9.40;65.50;;;;;;4970898;28;20282;-74
2023/05/17 07:18:39;;;;;;;8.80;1.10;;;9.40;65.90;;;;;;4989029;28;20820;-73
2023/05/17 07:21:06;;;;;;;8.10;1.20;;;9.40;66.10;;;;;;4970936;28;20496;-74
2023/05/17 07:23:33;;;;;;;11.98;1.33;;;9.40;66.30;;;;;;4985812;28;20055;-74
2023/05/17 07:26:00;;;;;;;7.50;1.10;;;9.50;65.90;;;;;;4989764;28;20055;-74
2023/05/17 07:28:28;;;;;;;9.35;1.55;;;9.50;65.60;;;;;;4972693;28;20271;-74
2023/05/17 07:30:55;;;;;;;9.05;0.85;;;9.50;65.20;;;;;;4990595;28;20979;-75
2023/05/17 07:33:23;;;;;;;5.22;0.65;;;9.50;64.00;;;;;;4972450;28;20599;-75
2023/05/17 07:35:50;;;;;;;8.00;1.20;;;9.50;64.10;;;;;;4967762;28;20055;-73
2023/05/17 07:38:17;;;;;;;9.07;1.23;;;9.50;64.40;;;;;;4970486;28;20516;-73
2023/05/17 07:40:44;;;;;;;16.63;1.77;;;9.60;64.60;;;;;;4985992;28;20283;-73
2023/05/17 07:43:11;;;;;;;2.50;0.60;;;9.60;63.60;;;;;;4970947;28;20126;-73
2023/05/17 07:45:39;;;;;;;6.45;0.80;;;9.60;63.90;;;;;;4988569;28;20047;-73
2023/05/17 07:48:07;;;;;;;7.13;1.00;;;9.70;63.40;;;;;;4966223;28;20129;-73
2023/05/17 07:50:34;;;;;;;7.07;1.00;;;9.70;61.70;;;;;;4968110;28;20061;-73
2023/05/17 07:53:01;;;;;;;7.28;1.10;;;9.70;62.00;;;;;;4987304;28;20269;-73
2023/05/17 07:55:28;;;;;;;8.35;1.00;;;9.70;62.90;;;;;;4986721;28;20055;-73
2023/05/17 07:57:55;;;;;;;9.80;1.08;;;9.80;63.10;;;;;;4968326;28;20166;-73
2023/05/17 08:00:23;;;;;;;12.57;1.35;;;9.80;63.20;;;;;;4971044;28;20700;-73
2023/05/17 08:02:51;;;;;;;8.33;0.90;;;9.80;62.80;;;;;;4984454;28;20063;-73
2023/05/17 08:05:19;;;;;;;8.48;1.00;;;9.90;63.20;;;;;;4965665;28;20263;-74
2023/05/17 08:07:45;;;;;;;5.95;1.13;;;10.00;63.30;;;;;;4983310;28;20054;-73
2023/05/17 08:10:13;;;;;;;6.78;1.20;;;10.00;62.10;;;;;;4968217;28;20054;-73
2023/05/17 08:12:40;;;;;;;8.18;1.08;;;10.00;61.60;;;;;;4952901;28;20059;-72
2023/05/17 08:15:07;;;;;;;10.53;1.13;;;10.00;59.90;;;;;;4962430;28;20055;-72
2023/05/17 08:17:34;;;;;;;9.02;1.20;;;10.00;60.70;;;;;;4946227;28;20278;-72
2023/05/17 08:20:04;;;;;;;10.02;0.95;;;10.10;59.60;;;;;;4981561;28;20142;-72
2023/05/17 08:22:32;;;;;;;7.80;1.10;;;10.10;59.50;;;;;;4981757;28;20584;-72
2023/05/17 08:24:59;;;;;;;8.73;1.10;;;10.10;60.40;;;;;;4981693;28;20090;-72
2023/05/17 08:27:26;;;;;;;7.57;0.90;;;10.10;61.20;;;;;;4962497;28;20055;-72
2023/05/17 08:29:54;;;;;;;4.70;0.82;;;10.10;61.80;;;;;;4980952;28;20288;-72
2023/05/17 08:32:22;;;;;;;6.47;0.65;;;10.20;60.70;;;;;;4980233;28;20572;-73
2023/05/17 08:34:49;;;;;;;9.48;1.17;;;10.20;60.20;;;;;;4962286;28;20138;-73
2023/05/17 08:37:17;;;;;;;8.02;1.15;;;10.30;60.70;;;;;;4977096;28;20050;-73
2023/05/17 08:39:45;;;;;;;6.00;1.00;;;10.30;61.40;;;;;;4962843;28;20055;-73
2023/05/17 08:42:13;;;;;;;6.57;1.00;;;10.30;61.30;;;;;;4965307;28;20282;-73
2023/05/17 08:44:40;;;;;;;9.93;1.00;;;10.40;60.90;;;;;;4980935;28;20058;-73
2023/05/17 08:47:11;;;;;;;8.55;1.08;;;10.40;61.20;;;;;;4969868;28;20053;-73
2023/05/17 08:49:39;;;;;;;10.98;1.30;;;10.40;61.70;;;;;;4966747;28;20051;-73
2023/05/17 08:52:09;;;;;;;9.30;1.10;;;10.40;61.90;;;;;;4969320;28;20192;-73
2023/05/17 08:54:38;;;;;;;10.20;1.20;;;10.50;60.50;;;;;;4969989;28;20298;-73
2023/05/17 08:57:06;;;;;;;8.65;1.15;;;10.50;60.90;;;;;;4962619;28;20050;-73
2023/05/17 08:59:35;;;;;;;9.70;1.35;;;10.50;61.30;;;;;;4967507;28;20113;-73
2023/05/17 09:02:02;;;;;;;7.53;0.77;;;10.50;61.20;;;;;;4966957;28;20159;-74
2023/05/17 09:04:30;;;;;;;7.30;1.13;;;10.60;61.40;;;;;;4966897;28;20051;-73
2023/05/17 09:06:57;;;;;;;11.32;1.67;;;10.60;61.50;;;;;;4982975;28;20293;-74
2023/05/17 09:09:25;;;;;;;8.43;1.20;;;10.70;61.80;;;;;;4981408;28;20062;-74
2023/05/17 09:11:54;;;;;;;8.13;1.25;;;10.70;62.00;;;;;;4968481;28;20054;-74
2023/05/17 09:14:21;;;;;;;6.13;0.88;;;10.70;61.30;;;;;;4967883;28;20050;-74
2023/05/17 09:16:57;;;;;;;16.80;1.97;;;10.80;61.40;;;;;;4954159;28;20158;-73
2023/05/17 09:19:24;;;;;;;9.38;1.33;;;10.90;61.50;;;;;;4953874;28;20294;-73
2023/05/17 09:21:51;;;;;;;6.78;1.00;;;10.90;61.40;;;;;;4967758;28;20580;-74
2023/05/17 09:24:19;;;;;;;7.65;1.15;;;11.00;62.00;;;;;;4982996;28;20051;-74
2023/05/17 09:26:46;;;;;;;10.00;1.55;;;11.00;62.00;;;;;;4968058;28;20070;-74
2023/05/17 09:29:16;;;;;;;7.57;0.90;;;11.10;61.80;;;;;;4968663;28;20090;-74
2023/05/17 09:31:45;;;;;;;8.55;1.00;;;11.10;61.50;;;;;;4969345;28;20262;-74
2023/05/17 09:34:12;;;;;;;7.43;0.90;;;11.10;61.70;;;;;;4968995;28;20206;-74
2023/05/17 09:36:42;;;;;;;13.95;1.95;;;11.20;60.90;;;;;;4958972;28;20047;-75
2023/05/17 09:39:13;;;;;;;10.82;1.50;;;11.30;61.20;;;;;;4976862;28;20047;-74
2023/05/17 09:41:42;;;;;;;10.33;1.20;;;11.30;61.10;;;;;;4965783;28;20729;-74
2023/05/17 09:44:10;;;;;;;8.00;1.20;;;11.40;61.20;;;;;;4957289;28;20314;-74
2023/05/17 09:46:42;;;;;;;13.43;1.65;;;11.40;61.20;;;;;;4986152;28;20058;-74
2023/05/17 09:49:09;;;;;;;10.23;1.65;;;11.50;61.20;;;;;;4965130;28;20053;-74
2023/05/17 09:51:39;;;;;;;9.32;2.05;;;11.50;61.50;;;;;;4961617;28;20081;-73
2023/05/17 09:54:07;;;;;;;9.40;1.33;;;11.50;62.00;;;;;;4959061;28;20178;-74
2023/05/17 09:56:34;;;;;;;10.10;1.15;;;11.60;61.70;;;;;;4963758;28;20700;-74
2023/05/17 09:59:03;;;;;;;11.23;1.50;;;11.70;62.00;;;;;;4957658;28;20050;-74
2023/05/17 10:01:32;;;;;;;9.45;1.60;;;11.70;62.40;;;;;;4981893;28;20067;-74
2023/05/17 10:04:02;;;;;;;8.30;1.23;;;11.80;62.20;;;;;;4965902;28;20055;-74
2023/05/17 10:06:30;;;;;;;9.37;1.43;;;11.90;62.20;;;;;;4981701;28;20058;-74
2023/05/17 10:08:58;;;;;;;6.55;1.13;;;11.90;61.40;;;;;;4969182;28;20275;-74
2023/05/17 10:11:32;;;;;;;6.20;1.17;;;11.90;61.40;;;;;;4980367;28;20101;-75
2023/05/17 10:14:05;;;;;;;8.90;1.50;;;12.00;61.00;;;;;;4949238;28;20043;-74
2023/05/17 10:16:33;;;;;;;9.45;1.65;;;12.00;61.20;;;;;;4974501;28;20062;-76
2023/05/17 10:19:03;;;;;;;8.97;0.83;;;12.10;61.30;;;;;;4991182;28;20133;-75
2023/05/17 10:21:31;;;;;;;7.18;0.75;;;12.10;61.80;;;;;;4995992;28;20271;-75
2023/05/17 10:23:59;;;;;;;7.18;0.90;;;12.10;58.40;;;;;;4985835;28;20074;-75
2023/05/17 10:26:27;;;;;;;10.48;1.20;;;12.10;56.30;;;;;;4970676;28;20055;-75
2023/05/17 10:29:00;;;;;;;8.55;1.45;;;12.10;57.50;;;;;;4988513;28;20057;-76
2023/05/17 10:31:30;;;;;;;9.87;1.20;;;12.10;58.60;;;;;;4970538;28;20055;-75
2023/05/17 10:33:58;;;;;;;8.68;1.10;;;12.10;58.50;;;;;;4969530;28;20279;-75
2023/05/17 10:36:27;;;;;;;6.43;1.20;;;12.10;58.70;;;;;;4987101;28;20055;-75
2023/05/17 10:38:55;;;;;;;10.63;1.05;;;12.10;58.40;;;;;;4960340;28;20052;-75
2023/05/17 10:41:24;;;;;;;7.47;1.40;;;12.20;58.00;;;;;;4981396;28;20408;-76
2023/05/17 10:43:52;;;;;;;5.87;1.20;;;12.20;58.10;;;;;;4987397;28;20059;-76
2023/05/17 10:46:20;;;;;;;8.57;1.27;;;12.30;58.60;;;;;;4967413;28;20286;-77
2023/05/17 10:48:50;;;;;;;12.75;1.30;;;12.30;59.20;;;;;;4985475;28;20059;-76
2023/05/17 10:51:23;;;;;;;5.82;0.80;;;12.30;59.00;;;;;;4964577;28;20190;-76
2023/05/17 10:54:10;;;;;;;7.80;1.05;;;12.50;59.20;;;;;;4986907;28;20059;-75
2023/05/17 10:56:41;;;;;;;6.23;0.90;;;12.50;60.20;;;;;;4968950;28;20059;-77
2023/05/17 10:59:20;;;;;;;6.30;0.90;;;12.50;58.20;;;;;;4988905;28;21103;-76
2023/05/17 11:01:57;;;;;;;8.38;0.82;;;12.60;57.70;;;;;;4989726;28;20062;-76
2023/05/17 11:04:26;;;;;;;6.72;1.00;;;12.60;58.20;;;;;;4991541;28;20051;-76
2023/05/17 11:07:23;;;;;;;7.22;0.95;;;12.70;56.90;;;;;;5006110;23;20562;-77
2023/05/17 11:09:54;;;;;;;5.70;0.60;;;12.70;57.00;;;;;;4989298;28;20526;-77
2023/05/17 11:12:30;;;;;;;5.40;0.73;;;12.80;57.20;;;;;;4989805;28;20262;-77
2023/05/17 11:14:58;;;;;;;7.22;0.85;;;12.80;56.90;;;;;;4989770;28;20180;-77
2023/05/17 11:17:27;;;;;;;5.38;0.80;;;12.90;57.00;;;;;;4990032;28;20055;-77
2023/05/17 11:20:30;;;;;;;6.55;1.00;;;12.90;57.10;;;;;;4990019;28;20057;-76
2023/05/17 11:22:58;;;;;;;5.23;1.07;;;13.00;57.50;;;;;;4989504;28;20098;-76
2023/05/17 11:25:28;;;;;;;7.82;0.90;;;13.10;58.00;;;;;;4985414;28;20275;-77
2023/05/17 11:27:55;;;;;;;7.30;1.08;;;13.10;55.80;;;;;;4986340;28;20223;-76
2023/05/17 11:30:25;;;;;;;7.60;1.20;;;13.10;55.90;;;;;;4988811;28;20133;-76
2023/05/17 11:32:54;;;;;;;7.55;0.95;;;13.20;56.10;;;;;;4986078;28;20071;-75
2023/05/17 11:35:24;;;;;;;5.00;0.90;;;13.30;56.20;;;;;;4977456;28;20047;-75
2023/05/17 11:37:52;;;;;;;7.03;0.90;;;13.30;56.20;;;;;;4979397;28;20281;-76
2023/05/17 11:40:26;;;;;;;7.05;0.80;;;13.30;56.70;;;;;;4982090;28;20046;-75
2023/05/17 11:43:16;;;;;;;4.93;1.05;;;13.50;57.70;;;;;;4983256;28;20903;-75
2023/05/17 11:45:45;;;;;;;7.30;1.15;;;13.50;56.90;;;;;;4986262;28;20058;-75
2023/05/17 11:48:13;;;;;;;6.17;1.00;;;13.60;56.40;;;;;;4968656;28;20565;-75
2023/05/17 11:50:41;;;;;;;8.48;1.15;;;13.60;56.60;;;;;;4981755;28;20257;-75
2023/05/17 11:53:08;;;;;;;9.15;1.35;;;13.70;56.30;;;;;;4984476;28;20054;-76
2023/05/17 11:55:38;;;;;;;6.70;1.00;;;13.70;56.40;;;;;;4987597;28;20047;-75
2023/05/17 11:58:08;;;;;;;8.02;1.00;;;13.90;56.40;;;;;;4978675;28;20046;-76
2023/05/17 12:00:39;;;;;;;5.37;0.90;;;13.90;56.00;;;;;;4970851;28;20053;-76
2023/05/17 12:03:17;;;;;;;5.22;1.00;;;13.90;55.70;;;;;;5001091;28;20295;-76
2023/05/17 12:05:44;;;;;;;6.35;0.90;;;13.90;56.00;;;;;;4985834;28;20054;-75
2023/05/17 12:08:11;;;;;;;6.18;0.68;;;14.00;56.00;;;;;;4984568;28;20058;-75
2023/05/17 12:10:45;;;;;;;6.75;1.20;;;14.10;55.00;;;;;;4984687;28;20058;-75
2023/05/17 12:13:12;;;;;;;6.93;1.30;;;14.10;54.10;;;;;;4983887;28;20101;-74
2023/05/17 12:15:43;;;;;;;9.07;1.13;;;14.10;54.80;;;;;;4985954;28;20729;-75
2023/05/17 12:18:11;;;;;;;7.93;1.23;;;14.20;54.90;;;;;;4984879;28;20077;-75
2023/05/17 12:20:54;;;;;;;10.68;1.33;;;14.30;55.70;;;;;;4988304;28;20047;-75
2023/05/17 12:23:28;;;;;;;5.45;0.82;;;14.30;54.90;;;;;;4985956;28;20089;-76
2023/05/17 12:26:05;;;;;;;5.20;0.80;;;14.40;55.80;;;;;;4975244;28;20178;-77
2023/05/17 12:28:32;;;;;;;4.00;0.85;;;14.50;55.70;;;;;;4982453;28;20275;-79
2023/05/17 12:31:02;;;;;;;7.72;1.13;;;14.50;56.50;;;;;;4987710;28;20047;-77
2023/05/17 12:33:31;;;;;;;8.63;1.27;;;14.60;55.20;;;;;;4985053;28;20498;-77
2023/05/17 12:35:59;;;;;;;5.30;1.17;;;14.70;54.40;;;;;;4969686;28;20315;-77
2023/05/17 12:38:30;;;;;;;6.37;1.20;;;14.70;54.80;;;;;;4987120;28;20082;-77
2023/05/17 12:40:59;;;;;;;14.63;2.53;;;14.80;54.90;;;;;;4986992;28;20290;-77
2023/05/17 12:43:27;;;;;;;53.90;11.10;;;14.90;54.80;;;;;;4989830;28;20133;-78
2023/05/17 12:45:54;;;;;;;22.55;4.47;;;14.90;54.00;;;;;;4984242;28;20050;-78
2023/05/17 12:48:26;;;;;;;8.23;1.48;;;15.00;55.20;;;;;;4987758;28;20051;-77
2023/05/17 12:50:54;;;;;;;6.13;1.23;;;15.00;54.40;;;;;;4988000;28;20054;-78
2023/05/17 12:53:22;;;;;;;8.00;1.55;;;15.00;53.00;;;;;;4983450;28;20636;-78
2023/05/17 12:55:57;;;;;;;5.82;1.20;;;15.10;53.00;;;;;;4988870;28;20043;-77